KABY

Southwest Georgia Regional Airport

Albany, Georgia, USA
METAR KABY 131053Z AUTO 05003KT 10SM CLR 06/02 A3023 RMK AO2 SLP237 T00560017
Observed Flight Rules
Dec-13 @ 10:53 UTC (26 minutes ago) Visual Flight Rules
Wind Visibility Clouds
50° at 3 knots 10 miles
  • Clear skies
Temperatures Readings
Current 6°C / 43°F
Dewpoint 2°C / 36°F
Humidity 76%
Altimeter 30.23" Hg
Pressure 1023.7 hPa
Elevation 58
METAR KABY 131053Z AUTO 05003KT 10SM CLR 06/02 A3023 RMK AO2 SLP237 T00560017
Observed Flight Rules
Dec-13 @ 10:53 UTC
(26 minutes ago)
VFR
Wind Visibility
50° at 3 knots 10 miles
Clouds
  • Clear skies
Temperature Dewpoint
6°C / 43°F 2°C / 36°F
Humidity Altimeter Pressure
76% 30.23" Hg 1023.7 hPa